Terminal Aerodrome Forecast
Issued by NWS Topeka, KS

Current Version | Previous Version | Text Only | Print | Product List | Glossary On
Versions: 1 2 3 4 5 6 7 8 9 10 11 12 13 14 15 16 17 18 19 20 21 22 23 24 25 26 27 28
000
FTUS43 KTOP 181500 AAB
TAFTOP
TAF AMD
KTOP 181533Z 1816/1912 09010KT 5SM BR BKN007
     FM182000 10008KT P6SM SCT150
     FM190800 12004KT 4SM BR BKN007=

USA.gov is the U.S. government's official web portal to all federal, state and local government web resources and services.